createdAt,value
2022-09-21T00:03:46.886Z,101025.75
2022-09-21T00:08:47.053Z,101017.88
2022-09-21T00:13:47.902Z,101027.34
2022-09-21T00:18:46.670Z,101024.88
2022-09-21T00:23:46.817Z,101019.63
2022-09-21T00:28:47.356Z,101023.22
2022-09-21T00:33:46.106Z,101030.19
2022-09-21T00:38:46.086Z,101034.53
2022-09-21T00:43:49.455Z,101033.22
2022-09-21T00:48:48.408Z,101035.50
2022-09-21T00:53:48.865Z,101034.78
2022-09-21T00:58:52.330Z,101035.34
2022-09-21T01:03:53.130Z,101033.34
2022-09-21T01:08:55.807Z,101036.84
2022-09-21T01:14:28.976Z,101039.59
2022-09-21T01:19:55.914Z,101037.91
2022-09-21T01:25:07.707Z,101032.88
2022-09-21T01:30:11.012Z,101030.69
2022-09-21T01:35:15.369Z,101031.56
2022-09-21T01:40:19.327Z,101036.69
2022-09-21T01:45:25.114Z,101027.78
2022-09-21T01:50:26.170Z,101024.34
2022-09-21T01:55:30.240Z,101031.56
2022-09-21T02:00:32.474Z,101033.44
2022-09-21T02:05:31.526Z,101023.25
2022-09-21T02:10:35.404Z,101032.97
2022-09-21T02:15:54.933Z,101032.13
2022-09-21T02:20:59.905Z,101029.00
2022-09-21T02:26:03.221Z,101039.66
2022-09-21T02:31:13.401Z,101030.94
2022-09-21T02:36:19.663Z,101028.75
2022-09-21T02:41:25.254Z,101038.84
2022-09-21T02:46:28.784Z,101043.00
2022-09-21T02:51:32.318Z,101036.97
2022-09-21T02:56:32.674Z,101031.28
2022-09-21T03:01:34.374Z,101026.53
2022-09-21T03:06:33.686Z,101043.44
2022-09-21T03:11:32.549Z,101025.03
2022-09-21T03:16:32.764Z,101025.97
2022-09-21T03:21:31.551Z,101035.09
2022-09-21T03:26:30.382Z,101036.09
2022-09-21T03:31:29.162Z,101039.19
2022-09-21T03:36:29.399Z,101044.69
2022-09-21T03:41:28.397Z,101043.13
2022-09-21T03:46:27.189Z,101042.97
2022-09-21T03:51:25.971Z,101055.06
2022-09-21T03:56:26.170Z,101053.09
2022-09-21T04:01:25.123Z,101056.09
2022-09-21T04:06:23.942Z,101060.44
2022-09-21T04:11:23.284Z,101073.00
2022-09-21T04:16:24.354Z,101062.44
2022-09-21T04:21:23.427Z,101071.88
2022-09-21T04:26:24.195Z,101080.72
2022-09-21T04:31:25.484Z,101066.75
2022-09-21T04:36:25.866Z,101070.59
2022-09-21T04:41:24.685Z,101076.06
2022-09-21T04:46:25.144Z,101077.19
2022-09-21T04:51:23.904Z,101085.09
2022-09-21T04:56:22.633Z,101078.38
2022-09-21T05:01:21.368Z,101085.78
2022-09-21T05:06:22.190Z,101084.84
2022-09-21T05:11:20.853Z,101093.56
2022-09-21T05:16:20.562Z,101097.91
2022-09-21T05:21:19.331Z,101088.63
2022-09-21T05:26:19.443Z,101083.47
2022-09-21T05:31:39.381Z,101095.59
2022-09-21T05:36:46.946Z,101084.69
2022-09-21T05:41:47.823Z,101082.56
2022-09-21T05:46:56.413Z,101090.84
2022-09-21T05:52:03.673Z,101095.09
2022-09-21T05:57:09.271Z,101096.69
2022-09-21T06:02:18.008Z,101090.41
2022-09-21T06:07:16.778Z,101080.59
2022-09-21T06:12:16.973Z,101086.91
2022-09-21T06:17:15.721Z,101088.91
2022-09-21T06:22:14.465Z,101094.72
2022-09-21T06:27:13.187Z,101092.97
2022-09-21T06:32:13.421Z,101096.84
2022-09-21T06:37:12.162Z,101115.50
2022-09-21T06:42:10.928Z,101117.66
2022-09-21T06:47:09.653Z,101112.63
2022-09-21T06:52:10.010Z,101113.16
2022-09-21T06:57:08.743Z,101116.78
2022-09-21T07:02:07.695Z,101116.91
2022-09-21T07:07:06.617Z,101115.97
2022-09-21T07:12:07.190Z,101127.69
2022-09-21T07:17:06.611Z,101130.13
2022-09-21T07:22:05.285Z,101127.91
2022-09-21T07:27:04.016Z,101128.19
2022-09-21T07:32:04.595Z,101128.34
2022-09-21T07:37:03.431Z,101128.25
2022-09-21T07:42:02.073Z,101117.56
2022-09-21T07:47:01.406Z,101113.13
2022-09-21T07:52:04.351Z,101114.78
2022-09-21T07:57:23.115Z,101116.75
2022-09-21T08:02:21.855Z,101116.38
2022-09-21T08:07:22.068Z,101119.19
2022-09-21T08:12:21.139Z,101113.91
2022-09-21T08:17:19.861Z,101110.75
2022-09-21T08:22:19.014Z,101112.06
2022-09-21T08:27:19.277Z,101107.94
2022-09-21T08:32:39.331Z,101105.88
2022-09-21T08:37:38.063Z,101106.63
2022-09-21T08:42:57.730Z,101094.38
2022-09-21T08:48:00.099Z,101094.34
2022-09-21T08:53:05.410Z,101079.72
2022-09-21T08:58:09.996Z,101080.16
2022-09-21T09:03:35.185Z,101089.53
2022-09-21T09:09:00.836Z,101058.09
2022-09-21T09:14:12.490Z,101064.03
2022-09-21T09:19:24.222Z,101052.84
2022-09-21T09:24:33.166Z,101037.28
2022-09-21T09:29:41.541Z,101038.66
2022-09-21T09:34:46.070Z,101034.56
2022-09-21T09:39:50.307Z,101030.59
2022-09-21T09:45:11.986Z,101021.72
2022-09-21T09:50:13.052Z,101014.94
2022-09-21T09:55:20.186Z,101017.47
2022-09-21T10:00:22.548Z,101018.50
2022-09-21T10:05:24.639Z,101011.94
2022-09-21T10:10:35.214Z,101010.31
2022-09-21T10:15:35.534Z,101013.56
2022-09-21T10:20:35.136Z,101010.75
2022-09-21T10:25:39.432Z,101019.16
2022-09-21T10:30:41.483Z,101022.09
2022-09-21T10:35:50.702Z,101012.19
2022-09-21T10:40:50.105Z,101007.50
2022-09-21T10:45:56.112Z,101002.59
2022-09-21T10:50:57.133Z,101001.22
2022-09-21T10:56:17.082Z,100993.88
2022-09-21T11:01:24.683Z,100977.75
2022-09-21T11:06:29.307Z,100977.03
2022-09-21T11:11:40.957Z,100974.63
2022-09-21T11:16:46.157Z,100966.94
2022-09-21T11:21:53.581Z,100965.91
2022-09-21T11:26:55.752Z,100956.75
2022-09-21T11:32:12.893Z,100931.16
2022-09-21T11:37:24.648Z,100929.97
2022-09-21T11:42:39.478Z,100910.72
2022-09-21T11:47:56.723Z,100919.09
2022-09-21T11:53:09.459Z,100913.22
2022-09-21T11:58:19.471Z,100908.00
2022-09-21T12:03:38.499Z,100898.59
2022-09-21T12:08:53.385Z,100907.31
2022-09-21T12:14:00.175Z,100906.66
2022-09-21T12:19:08.126Z,100907.50
2022-09-21T12:24:17.135Z,100913.31
2022-09-21T12:29:20.668Z,100911.91
2022-09-21T12:34:24.226Z,100911.09
2022-09-21T12:39:28.750Z,100919.19
2022-09-21T12:44:34.341Z,100911.53
2022-09-21T12:49:34.799Z,100908.63
2022-09-21T12:54:43.068Z,100904.16
2022-09-21T12:59:51.645Z,100899.13
2022-09-21T13:05:02.197Z,100905.72
2022-09-21T13:10:02.709Z,100905.84
2022-09-21T13:15:05.874Z,100913.44
2022-09-21T13:20:17.024Z,100907.78
2022-09-21T13:25:28.193Z,100909.09
2022-09-21T13:30:34.904Z,100907.38
2022-09-21T13:36:09.605Z,100903.16
2022-09-21T13:41:40.280Z,100910.63
2022-09-21T13:47:06.609Z,100919.53
2022-09-21T13:52:12.322Z,100928.34
2022-09-21T13:57:25.706Z,100927.34
2022-09-21T14:02:33.344Z,100929.50
2022-09-21T14:07:35.468Z,100929.28
2022-09-21T14:12:35.962Z,100919.28
2022-09-21T14:17:39.829Z,100918.56
2022-09-21T14:22:44.317Z,100917.63
2022-09-21T14:27:46.281Z,100921.91
2022-09-21T14:32:48.375Z,100917.53
2022-09-21T14:37:52.226Z,100912.19
2022-09-21T14:42:51.019Z,100917.84
2022-09-21T14:48:03.830Z,100913.28
2022-09-21T14:53:28.314Z,100910.31
2022-09-21T14:58:42.933Z,100905.03
2022-09-21T15:04:02.779Z,100918.13
2022-09-21T15:09:58.574Z,100927.41
2022-09-21T15:15:10.618Z,100930.03
2022-09-21T15:20:17.124Z,100939.72
2022-09-21T15:25:19.403Z,100933.03
2022-09-21T15:30:23.061Z,100937.16
2022-09-21T15:35:23.630Z,100935.13
2022-09-21T15:40:26.146Z,100933.31
2022-09-21T15:45:27.609Z,100943.41
2022-09-21T15:50:28.223Z,100947.28
2022-09-21T15:55:30.482Z,100952.72
2022-09-21T16:00:32.448Z,100957.38
2022-09-21T16:05:34.495Z,100960.84
2022-09-21T16:10:40.998Z,100971.13
2022-09-21T16:15:40.750Z,100974.31
2022-09-21T16:20:42.771Z,100987.06
2022-09-21T16:25:43.904Z,100977.19
2022-09-21T16:30:49.015Z,100987.03
2022-09-21T16:35:47.867Z,100986.00
2022-09-21T16:40:51.949Z,101003.28
2022-09-21T16:45:50.861Z,101011.66
2022-09-21T16:50:54.063Z,101012.25
2022-09-21T16:55:54.682Z,101016.00
2022-09-21T17:00:56.539Z,101036.81
2022-09-21T17:05:57.469Z,101064.94
2022-09-21T17:10:58.083Z,101081.50
2022-09-21T17:15:57.436Z,101086.09
2022-09-21T17:20:56.149Z,101085.47
2022-09-21T17:25:55.100Z,101091.13
2022-09-21T17:30:55.609Z,101096.41
2022-09-21T17:35:55.430Z,101067.88
2022-09-21T17:40:54.781Z,101059.06
2022-09-21T17:46:03.728Z,101064.97
2022-09-21T17:51:03.291Z,101077.16
2022-09-21T17:56:15.416Z,101079.44
2022-09-21T18:01:27.689Z,101091.09
2022-09-21T18:06:31.632Z,101090.25
2022-09-21T18:12:03.072Z,101086.75
2022-09-21T18:17:21.895Z,101080.91
2022-09-21T18:22:32.979Z,101088.56
2022-09-21T18:27:35.485Z,101095.34
2022-09-21T18:33:13.013Z,101110.66
2022-09-21T18:38:21.822Z,101118.19
2022-09-21T18:43:36.610Z,101117.00
2022-09-21T18:48:53.221Z,101116.66
2022-09-21T18:53:56.511Z,101111.78
2022-09-21T18:58:57.511Z,101116.72
2022-09-21T19:04:00.856Z,101114.28
2022-09-21T19:09:11.076Z,101106.19
2022-09-21T19:14:22.593Z,101115.72
2022-09-21T19:19:38.931Z,101108.16
2022-09-21T19:24:48.403Z,101104.03
2022-09-21T19:29:59.388Z,101092.53
2022-09-21T19:35:01.185Z,101095.41
2022-09-21T19:40:01.968Z,101099.19
2022-09-21T19:45:14.664Z,101103.19
2022-09-21T19:50:18.595Z,101093.88
2022-09-21T19:55:37.480Z,101087.13
2022-09-21T20:00:39.601Z,101091.22
2022-09-21T20:05:50.636Z,101087.81
2022-09-21T20:11:08.639Z,101091.19
2022-09-21T20:16:24.593Z,101086.13
2022-09-21T20:21:28.690Z,101102.88
2022-09-21T20:26:28.802Z,101103.56
2022-09-21T20:31:27.939Z,101111.50
2022-09-21T20:36:30.030Z,101104.69
2022-09-21T20:41:28.766Z,101103.19
2022-09-21T20:46:27.523Z,101101.88
2022-09-21T20:51:28.572Z,101105.09
2022-09-21T20:56:27.287Z,101107.75
2022-09-21T21:01:27.141Z,101104.91
2022-09-21T21:06:31.311Z,101106.63
2022-09-21T21:11:30.079Z,101106.72
2022-09-21T21:16:28.929Z,101113.03
2022-09-21T21:21:29.046Z,101102.25
2022-09-21T21:26:50.240Z,101106.63
2022-09-21T21:31:47.856Z,101107.34
2022-09-21T21:36:48.017Z,101107.66
2022-09-21T21:41:46.879Z,101105.97
2022-09-21T21:46:45.631Z,101105.19
2022-09-21T21:51:44.762Z,101104.34
2022-09-21T21:56:45.149Z,101097.94
2022-09-21T22:01:46.775Z,101094.44
2022-09-21T22:06:45.553Z,101098.69
2022-09-21T22:11:45.915Z,101104.66
2022-09-21T22:16:44.806Z,101102.84
2022-09-21T22:21:48.228Z,101101.91
2022-09-21T22:26:50.773Z,101100.09
2022-09-21T22:31:50.990Z,101103.13
2022-09-21T22:36:50.786Z,101108.31
2022-09-21T22:41:50.873Z,101107.31
2022-09-21T22:46:49.578Z,101112.50
2022-09-21T22:51:48.461Z,101111.91
2022-09-21T22:56:47.142Z,101108.31
2022-09-21T23:01:47.599Z,101113.63
2022-09-21T23:06:46.807Z,101116.56
2022-09-21T23:11:48.118Z,101100.38
2022-09-21T23:16:48.526Z,101095.19
2022-09-21T23:21:50.571Z,101099.63
2022-09-21T23:26:51.698Z,101092.44
2022-09-21T23:31:52.085Z,101104.06
2022-09-21T23:36:50.836Z,101096.59
2022-09-21T23:41:49.567Z,101088.81
2022-09-21T23:46:48.376Z,101087.44
2022-09-21T23:51:48.495Z,101101.09
2022-09-21T23:56:47.656Z,101103.00
